Terminal Aerodrome Forecast
Issued by NWS Detroit/Pontiac, MI

Home | Current Version | Previous Version | Text Only | Print | Product List | Glossary On
Versions: 1 2 3 4 5 6 7 8 9 10 11 12 13 14 15 16 17
000
FTUS43 KDTX 170500
TAFFNT
TAF
KFNT 170520Z 1706/1806 VRB03KT P6SM SKC
     FM171600 26009KT P6SM SCT040 SCT250
     FM172200 27008KT P6SM SCT050 BKN250
     FM180200 VRB03KT P6SM FEW050=

USA.gov is the U.S. government's official web portal to all federal, state and local government web resources and services.